Skip Navigation LinksHome page > Weather > Current weather Skip Navigation Links

Current Weather

New Tokyo International (Narita), Tokyo

For information only: do not use for flight planning or navigation.
Latest weather
Observation time Monday, May 30, 2016 9:30 AM JST
Local time Monday, May 30, 2016 9:59 AM JST
Flight conditions Marginal Visual Meteorological Conditions
Winds
Wind direction North-Northeast (30°)
Wind speed 7 mph
Visibility 3.7 mi.
Present weather light rain
Sky condition
Ceiling 5,000 ft. broken clouds
Cloud layer few clouds 700 ft.
Cloud layer scattered clouds 2,500 ft.
Cloud layer broken clouds 5,000 ft.
Temperature 64°F
Dewpoint 61°F
Altimeter 29.74 in.Hg
Derived measurements
Relative humidity 88%
Density altitude 959 ft.
Remarks
No significant changes expected in the next two hours.
South and.
METAR RJAA 300030Z 03006KT 6000 -RA FEW007 SCT025 BKN050 18/16 Q1007 NOSIG RMK 1ST007 3CU025 7SC050 A2975 LIGHT TO MOD TURB OBS AT 0020Z 40NM S NARITA BTN FL160 AND 11000FT IN DES A320 JJP302

Settings

Location code

InnerDrive.Weather 4.0.5722.1 Release CLR 4.0.30319.34209
Copyright ©2015 Inner Drive Technology. All rights reserved. Portions Copyright ©1986-2015 David Braverman.

Find weather

Site navigation


Skip Navigation Links

Place info

Page info

PayPal - The safer, easier way to pay online!

Return home.

Copyright ©2016 Inner Drive Technology. Purveyors of fine, hand-crafted computer software. Page printed 2016-05-30T00:59:34 UTC.